sensor_id;sensor_type;location;lat;lon;timestamp;temperature;humidity
59572;DHT22;59406;45.602;11.904;2022-08-04T00:01:08;25.70;63.40
59572;DHT22;59406;45.602;11.904;2022-08-04T00:03:42;25.70;64.00
59572;DHT22;59406;45.602;11.904;2022-08-04T00:06:19;25.80;63.30
59572;DHT22;59406;45.602;11.904;2022-08-04T00:08:49;25.80;63.50
59572;DHT22;59406;45.602;11.904;2022-08-04T00:11:21;25.90;62.90
59572;DHT22;59406;45.602;11.904;2022-08-04T00:13:53;25.80;62.90
59572;DHT22;59406;45.602;11.904;2022-08-04T00:16:22;25.80;63.30
59572;DHT22;59406;45.602;11.904;2022-08-04T00:18:54;25.80;63.40
59572;DHT22;59406;45.602;11.904;2022-08-04T00:21:24;25.80;63.80
59572;DHT22;59406;45.602;11.904;2022-08-04T00:23:51;25.80;64.10
59572;DHT22;59406;45.602;11.904;2022-08-04T00:26:19;25.80;64.20
59572;DHT22;59406;45.602;11.904;2022-08-04T00:28:47;25.80;64.10
59572;DHT22;59406;45.602;11.904;2022-08-04T00:31:14;25.80;63.50
59572;DHT22;59406;45.602;11.904;2022-08-04T00:33:44;25.80;63.30
59572;DHT22;59406;45.602;11.904;2022-08-04T00:36:12;25.80;64.70
59572;DHT22;59406;45.602;11.904;2022-08-04T00:38:42;25.80;64.30
59572;DHT22;59406;45.602;11.904;2022-08-04T00:41:34;25.90;65.40
59572;DHT22;59406;45.602;11.904;2022-08-04T00:44:29;25.80;65.50
59572;DHT22;59406;45.602;11.904;2022-08-04T00:55:15;25.70;67.00
59572;DHT22;59406;45.602;11.904;2022-08-04T01:00:17;25.50;66.50
59572;DHT22;59406;45.602;11.904;2022-08-04T01:03:13;25.50;66.70
59572;DHT22;59406;45.602;11.904;2022-08-04T01:16:30;25.00;67.40
59572;DHT22;59406;45.602;11.904;2022-08-04T01:19:02;24.90;67.70
59572;DHT22;59406;45.602;11.904;2022-08-04T01:22:14;24.90;68.00
59572;DHT22;59406;45.602;11.904;2022-08-04T01:30:19;24.80;68.30
59572;DHT22;59406;45.602;11.904;2022-08-04T01:32:57;24.70;68.00
59572;DHT22;59406;45.602;11.904;2022-08-04T01:35:38;24.70;68.10
59572;DHT22;59406;45.602;11.904;2022-08-04T01:38:16;24.60;68.10
59572;DHT22;59406;45.602;11.904;2022-08-04T01:40:44;24.50;69.40
59572;DHT22;59406;45.602;11.904;2022-08-04T01:43:12;24.50;69.00
59572;DHT22;59406;45.602;11.904;2022-08-04T01:45:40;24.20;69.80
59572;DHT22;59406;45.602;11.904;2022-08-04T01:48:07;24.10;70.10
59572;DHT22;59406;45.602;11.904;2022-08-04T01:50:36;24.00;69.60
59572;DHT22;59406;45.602;11.904;2022-08-04T01:53:03;24.00;70.00
59572;DHT22;59406;45.602;11.904;2022-08-04T01:55:30;24.00;69.50
59572;DHT22;59406;45.602;11.904;2022-08-04T01:58:00;24.10;69.80
59572;DHT22;59406;45.602;11.904;2022-08-04T02:00:28;24.00;69.70
59572;DHT22;59406;45.602;11.904;2022-08-04T02:02:55;23.90;70.00
59572;DHT22;59406;45.602;11.904;2022-08-04T02:05:25;23.90;70.20
59572;DHT22;59406;45.602;11.904;2022-08-04T02:08:20;23.90;70.70
59572;DHT22;59406;45.602;11.904;2022-08-04T02:11:07;23.80;72.20
59572;DHT22;59406;45.602;11.904;2022-08-04T02:13:51;23.70;70.90
59572;DHT22;59406;45.602;11.904;2022-08-04T02:19:20;23.80;71.50
59572;DHT22;59406;45.602;11.904;2022-08-04T02:21:56;23.80;71.60
59572;DHT22;59406;45.602;11.904;2022-08-04T02:24:26;23.80;71.20
59572;DHT22;59406;45.602;11.904;2022-08-04T02:26:53;23.80;70.60
59572;DHT22;59406;45.602;11.904;2022-08-04T02:30:03;23.80;70.70
59572;DHT22;59406;45.602;11.904;2022-08-04T02:32:32;23.80;71.50
59572;DHT22;59406;45.602;11.904;2022-08-04T02:37:34;23.80;71.20
59572;DHT22;59406;45.602;11.904;2022-08-04T02:40:03;23.70;71.10
59572;DHT22;59406;45.602;11.904;2022-08-04T02:42:31;23.70;71.00
59572;DHT22;59406;45.602;11.904;2022-08-04T02:44:59;23.70;71.00
59572;DHT22;59406;45.602;11.904;2022-08-04T02:47:27;23.70;70.90
59572;DHT22;59406;45.602;11.904;2022-08-04T02:49:56;23.70;70.90
59572;DHT22;59406;45.602;11.904;2022-08-04T02:52:23;23.70;70.90
59572;DHT22;59406;45.602;11.904;2022-08-04T02:54:55;23.60;69.80
59572;DHT22;59406;45.602;11.904;2022-08-04T02:57:23;23.60;70.10
59572;DHT22;59406;45.602;11.904;2022-08-04T03:00:06;23.60;69.90
59572;DHT22;59406;45.602;11.904;2022-08-04T03:30:55;23.30;70.50
59572;DHT22;59406;45.602;11.904;2022-08-04T03:36:30;23.30;70.70
59572;DHT22;59406;45.602;11.904;2022-08-04T03:44:58;23.20;70.70
59572;DHT22;59406;45.602;11.904;2022-08-04T03:53:45;23.20;70.90
59572;DHT22;59406;45.602;11.904;2022-08-04T03:56:34;23.20;70.70
59572;DHT22;59406;45.602;11.904;2022-08-04T03:59:47;23.20;71.00
59572;DHT22;59406;45.602;11.904;2022-08-04T04:14:21;23.20;70.60
59572;DHT22;59406;45.602;11.904;2022-08-04T04:23:41;23.30;71.40
59572;DHT22;59406;45.602;11.904;2022-08-04T04:32:51;23.10;71.30
59572;DHT22;59406;45.602;11.904;2022-08-04T04:45:54;23.60;71.20
59572;DHT22;59406;45.602;11.904;2022-08-04T04:54:03;24.00;71.60
59572;DHT22;59406;45.602;11.904;2022-08-04T04:58:57;24.10;71.20
59572;DHT22;59406;45.602;11.904;2022-08-04T05:15:29;24.90;70.70
59572;DHT22;59406;45.602;11.904;2022-08-04T05:17:58;25.10;70.20
59572;DHT22;59406;45.602;11.904;2022-08-04T05:20:29;25.30;70.00
59572;DHT22;59406;45.602;11.904;2022-08-04T05:23:27;25.40;70.10
59572;DHT22;59406;45.602;11.904;2022-08-04T05:26:15;25.60;70.40
59572;DHT22;59406;45.602;11.904;2022-08-04T05:28:55;25.90;69.90
59572;DHT22;59406;45.602;11.904;2022-08-04T05:31:30;25.90;69.60
59572;DHT22;59406;45.602;11.904;2022-08-04T05:33:59;26.00;69.40
59572;DHT22;59406;45.602;11.904;2022-08-04T05:36:52;26.10;69.30
59572;DHT22;59406;45.602;11.904;2022-08-04T05:39:36;26.10;69.10
59572;DHT22;59406;45.602;11.904;2022-08-04T05:42:03;26.30;69.30
59572;DHT22;59406;45.602;11.904;2022-08-04T05:44:31;26.40;69.50
59572;DHT22;59406;45.602;11.904;2022-08-04T05:46:58;26.50;69.60
59572;DHT22;59406;45.602;11.904;2022-08-04T05:49:27;26.60;69.20
59572;DHT22;59406;45.602;11.904;2022-08-04T05:51:57;26.70;69.10
59572;DHT22;59406;45.602;11.904;2022-08-04T05:54:25;26.90;68.90
59572;DHT22;59406;45.602;11.904;2022-08-04T05:56:52;27.10;68.30
59572;DHT22;59406;45.602;11.904;2022-08-04T05:59:20;27.20;67.90
59572;DHT22;59406;45.602;11.904;2022-08-04T06:01:52;27.40;67.40
59572;DHT22;59406;45.602;11.904;2022-08-04T06:04:21;27.70;66.10
59572;DHT22;59406;45.602;11.904;2022-08-04T06:06:47;27.90;65.30
59572;DHT22;59406;45.602;11.904;2022-08-04T06:09:14;28.00;64.80
59572;DHT22;59406;45.602;11.904;2022-08-04T06:11:41;28.20;64.00
59572;DHT22;59406;45.602;11.904;2022-08-04T06:14:11;28.30;63.70
59572;DHT22;59406;45.602;11.904;2022-08-04T06:16:40;28.60;63.10
59572;DHT22;59406;45.602;11.904;2022-08-04T06:19:10;28.90;62.30
59572;DHT22;59406;45.602;11.904;2022-08-04T06:21:39;29.10;60.10
59572;DHT22;59406;45.602;11.904;2022-08-04T06:24:09;29.30;59.10
59572;DHT22;59406;45.602;11.904;2022-08-04T06:26:37;29.60;58.90
59572;DHT22;59406;45.602;11.904;2022-08-04T06:29:05;29.90;57.40
59572;DHT22;59406;45.602;11.904;2022-08-04T06:31:42;30.00;57.60
59572;DHT22;59406;45.602;11.904;2022-08-04T06:34:22;30.30;56.60
59572;DHT22;59406;45.602;11.904;2022-08-04T06:36:49;30.70;55.70
59572;DHT22;59406;45.602;11.904;2022-08-04T06:39:15;30.70;55.70
59572;DHT22;59406;45.602;11.904;2022-08-04T06:41:42;31.00;55.40
59572;DHT22;59406;45.602;11.904;2022-08-04T06:44:09;31.30;54.40
59572;DHT22;59406;45.602;11.904;2022-08-04T06:46:39;31.50;53.60
59572;DHT22;59406;45.602;11.904;2022-08-04T06:49:06;31.90;51.00
59572;DHT22;59406;45.602;11.904;2022-08-04T06:51:34;32.10;50.70
59572;DHT22;59406;45.602;11.904;2022-08-04T06:54:01;32.20;49.80
59572;DHT22;59406;45.602;11.904;2022-08-04T06:56:29;32.50;49.50
59572;DHT22;59406;45.602;11.904;2022-08-04T06:58:58;32.60;49.10
59572;DHT22;59406;45.602;11.904;2022-08-04T07:01:27;32.90;48.50
59572;DHT22;59406;45.602;11.904;2022-08-04T07:03:54;32.90;48.10
59572;DHT22;59406;45.602;11.904;2022-08-04T07:06:21;33.10;47.60
59572;DHT22;59406;45.602;11.904;2022-08-04T07:08:48;33.40;46.50
59572;DHT22;59406;45.602;11.904;2022-08-04T07:11:15;33.60;46.40
59572;DHT22;59406;45.602;11.904;2022-08-04T07:13:42;33.80;46.00
59572;DHT22;59406;45.602;11.904;2022-08-04T07:16:12;34.10;45.20
59572;DHT22;59406;45.602;11.904;2022-08-04T07:18:40;34.30;44.50
59572;DHT22;59406;45.602;11.904;2022-08-04T07:21:06;34.50;44.40
59572;DHT22;59406;45.602;11.904;2022-08-04T07:23:32;34.30;44.30
59572;DHT22;59406;45.602;11.904;2022-08-04T07:25:58;34.60;42.30
59572;DHT22;59406;45.602;11.904;2022-08-04T07:28:27;34.70;40.80
59572;DHT22;59406;45.602;11.904;2022-08-04T07:30:56;34.70;41.50
59572;DHT22;59406;45.602;11.904;2022-08-04T07:33:23;35.00;40.10
59572;DHT22;59406;45.602;11.904;2022-08-04T07:35:54;35.20;39.70
59572;DHT22;59406;45.602;11.904;2022-08-04T07:38:21;35.40;39.80
59572;DHT22;59406;45.602;11.904;2022-08-04T07:40:47;35.40;38.00
59572;DHT22;59406;45.602;11.904;2022-08-04T07:43:15;35.30;38.80
59572;DHT22;59406;45.602;11.904;2022-08-04T07:45:41;35.60;38.60
59572;DHT22;59406;45.602;11.904;2022-08-04T07:48:08;35.60;37.70
59572;DHT22;59406;45.602;11.904;2022-08-04T07:50:35;36.10;37.30
59572;DHT22;59406;45.602;11.904;2022-08-04T07:53:03;36.30;37.50
59572;DHT22;59406;45.602;11.904;2022-08-04T07:55:30;36.80;36.80
59572;DHT22;59406;45.602;11.904;2022-08-04T07:57:56;37.00;36.50
59572;DHT22;59406;45.602;11.904;2022-08-04T08:00:22;37.00;37.80
59572;DHT22;59406;45.602;11.904;2022-08-04T08:02:49;37.30;34.60
59572;DHT22;59406;45.602;11.904;2022-08-04T08:05:18;37.50;35.50
59572;DHT22;59406;45.602;11.904;2022-08-04T08:07:46;37.40;33.70
59572;DHT22;59406;45.602;11.904;2022-08-04T08:10:12;37.50;34.60
59572;DHT22;59406;45.602;11.904;2022-08-04T08:12:39;37.70;33.90
59572;DHT22;59406;45.602;11.904;2022-08-04T08:15:08;38.00;34.30
59572;DHT22;59406;45.602;11.904;2022-08-04T08:17:35;38.40;33.40
59572;DHT22;59406;45.602;11.904;2022-08-04T08:20:02;38.40;33.50
59572;DHT22;59406;45.602;11.904;2022-08-04T08:22:29;38.40;32.20
59572;DHT22;59406;45.602;11.904;2022-08-04T08:24:55;38.50;32.20
59572;DHT22;59406;45.602;11.904;2022-08-04T08:27:22;38.70;32.70
59572;DHT22;59406;45.602;11.904;2022-08-04T08:29:48;38.70;31.30
59572;DHT22;59406;45.602;11.904;2022-08-04T08:32:14;38.70;29.90
59572;DHT22;59406;45.602;11.904;2022-08-04T08:34:42;38.50;29.20
59572;DHT22;59406;45.602;11.904;2022-08-04T08:40:24;38.60;29.60
59572;DHT22;59406;45.602;11.904;2022-08-04T08:49:07;39.60;27.20
59572;DHT22;59406;45.602;11.904;2022-08-04T09:00:37;41.70;23.60
59572;DHT22;59406;45.602;11.904;2022-08-04T09:11:23;41.50;24.40
59572;DHT22;59406;45.602;11.904;2022-08-04T09:13:55;41.50;23.80
59572;DHT22;59406;45.602;11.904;2022-08-04T09:16:39;41.50;23.20
59572;DHT22;59406;45.602;11.904;2022-08-04T09:19:28;41.40;23.80
59572;DHT22;59406;45.602;11.904;2022-08-04T09:22:32;42.40;22.30
59572;DHT22;59406;45.602;11.904;2022-08-04T09:25:25;0.20;0.20
59572;DHT22;59406;45.602;11.904;2022-08-04T09:27:57;0.20;0.20
59572;DHT22;59406;45.602;11.904;2022-08-04T09:31:14;0.20;0.20
59572;DHT22;59406;45.602;11.904;2022-08-04T09:38:45;0.20;0.20
59572;DHT22;59406;45.602;11.904;2022-08-04T09:52:55;0.20;0.20
59572;DHT22;59406;45.602;11.904;2022-08-04T10:01:20;0.20;0.20
59572;DHT22;59406;45.602;11.904;2022-08-04T10:04:02;0.20;0.20
59572;DHT22;59406;45.602;11.904;2022-08-04T10:06:35;0.20;0.20
59572;DHT22;59406;45.602;11.904;2022-08-04T10:20:18;0.20;0.20
59572;DHT22;59406;45.602;11.904;2022-08-04T10:23:14;0.20;0.20
59572;DHT22;59406;45.602;11.904;2022-08-04T10:32:17;0.20;0.20
59572;DHT22;59406;45.602;11.904;2022-08-04T10:35:16;0.20;0.20
59572;DHT22;59406;45.602;11.904;2022-08-04T10:43:08;0.20;0.20
59572;DHT22;59406;45.602;11.904;2022-08-04T10:45:43;0.20;0.20
59572;DHT22;59406;45.602;11.904;2022-08-04T10:53:38;0.20;0.20
59572;DHT22;59406;45.602;11.904;2022-08-04T10:56:14;0.20;0.20
59572;DHT22;59406;45.602;11.904;2022-08-04T10:58:48;0.20;0.20
59572;DHT22;59406;45.602;11.904;2022-08-04T11:01:28;0.20;0.20
59572;DHT22;59406;45.602;11.904;2022-08-04T11:03:59;0.20;0.20
59572;DHT22;59406;45.602;11.904;2022-08-04T11:06:27;0.20;0.20
59572;DHT22;59406;45.602;11.904;2022-08-04T11:08:54;0.20;0.20
59572;DHT22;59406;45.602;11.904;2022-08-04T11:14:07;0.20;0.20
59572;DHT22;59406;45.602;11.904;2022-08-04T11:16:56;0.20;0.20
59572;DHT22;59406;45.602;11.904;2022-08-04T11:24:53;0.20;0.20
59572;DHT22;59406;45.602;11.904;2022-08-04T11:30:27;0.20;0.20
59572;DHT22;59406;45.602;11.904;2022-08-04T11:35:51;0.20;0.20
59572;DHT22;59406;45.602;11.904;2022-08-04T11:38:36;0.20;0.20
59572;DHT22;59406;45.602;11.904;2022-08-04T11:41:08;0.20;0.20
59572;DHT22;59406;45.602;11.904;2022-08-04T11:43:47;0.20;0.20
59572;DHT22;59406;45.602;11.904;2022-08-04T11:46:43;0.20;0.20
59572;DHT22;59406;45.602;11.904;2022-08-04T11:49:40;0.20;0.20
59572;DHT22;59406;45.602;11.904;2022-08-04T11:52:12;0.20;0.20
59572;DHT22;59406;45.602;11.904;2022-08-04T11:54:40;0.20;0.20
59572;DHT22;59406;45.602;11.904;2022-08-04T11:57:07;0.20;0.20
59572;DHT22;59406;45.602;11.904;2022-08-04T11:59:37;0.20;0.20
59572;DHT22;59406;45.602;11.904;2022-08-04T12:04:56;0.20;0.20
59572;DHT22;59406;45.602;11.904;2022-08-04T12:15:22;0.20;0.20
59572;DHT22;59406;45.602;11.904;2022-08-04T12:18:13;0.20;0.20
59572;DHT22;59406;45.602;11.904;2022-08-04T12:20:57;0.20;0.20
59572;DHT22;59406;45.602;11.904;2022-08-04T12:23:38;0.20;0.20
59572;DHT22;59406;45.602;11.904;2022-08-04T12:26:08;0.20;0.20
59572;DHT22;59406;45.602;11.904;2022-08-04T12:28:40;0.20;0.20
59572;DHT22;59406;45.602;11.904;2022-08-04T12:31:23;0.20;0.20
59572;DHT22;59406;45.602;11.904;2022-08-04T12:33:55;0.20;0.20
59572;DHT22;59406;45.602;11.904;2022-08-04T12:36:28;0.20;0.20
59572;DHT22;59406;45.602;11.904;2022-08-04T12:39:06;0.20;0.20
59572;DHT22;59406;45.602;11.904;2022-08-04T12:41:39;0.20;0.20
59572;DHT22;59406;45.602;11.904;2022-08-04T12:44:11;0.20;0.20
59572;DHT22;59406;45.602;11.904;2022-08-04T12:46:38;0.20;0.20
59572;DHT22;59406;45.602;11.904;2022-08-04T12:49:05;0.20;0.20
59572;DHT22;59406;45.602;11.904;2022-08-04T12:51:37;0.20;0.20
59572;DHT22;59406;45.602;11.904;2022-08-04T12:54:06;0.20;0.20
59572;DHT22;59406;45.602;11.904;2022-08-04T12:56:41;0.20;0.20
59572;DHT22;59406;45.602;11.904;2022-08-04T12:59:11;0.20;0.20
59572;DHT22;59406;45.602;11.904;2022-08-04T13:01:39;0.20;0.20
59572;DHT22;59406;45.602;11.904;2022-08-04T13:04:22;0.20;0.20
59572;DHT22;59406;45.602;11.904;2022-08-04T13:07:00;0.20;0.20
59572;DHT22;59406;45.602;11.904;2022-08-04T13:09:32;0.20;0.20
59572;DHT22;59406;45.602;11.904;2022-08-04T13:12:12;0.20;0.20
59572;DHT22;59406;45.602;11.904;2022-08-04T13:14:40;0.20;0.20
59572;DHT22;59406;45.602;11.904;2022-08-04T13:17:11;0.20;0.20
59572;DHT22;59406;45.602;11.904;2022-08-04T13:19:38;0.20;0.20
59572;DHT22;59406;45.602;11.904;2022-08-04T13:22:05;0.20;0.20
59572;DHT22;59406;45.602;11.904;2022-08-04T13:24:33;0.20;0.20
59572;DHT22;59406;45.602;11.904;2022-08-04T13:27:04;0.20;0.20
59572;DHT22;59406;45.602;11.904;2022-08-04T13:29:39;0.20;0.20
59572;DHT22;59406;45.602;11.904;2022-08-04T13:32:06;0.20;0.20
59572;DHT22;59406;45.602;11.904;2022-08-04T13:34:33;0.20;0.20
59572;DHT22;59406;45.602;11.904;2022-08-04T13:37:01;0.20;0.20
59572;DHT22;59406;45.602;11.904;2022-08-04T13:39:29;0.20;0.20
59572;DHT22;59406;45.602;11.904;2022-08-04T13:42:01;0.20;0.20
59572;DHT22;59406;45.602;11.904;2022-08-04T13:44:34;0.20;0.20
59572;DHT22;59406;45.602;11.904;2022-08-04T13:47:08;0.20;0.20
59572;DHT22;59406;45.602;11.904;2022-08-04T13:49:37;0.20;0.20
59572;DHT22;59406;45.602;11.904;2022-08-04T13:52:05;0.20;0.20
59572;DHT22;59406;45.602;11.904;2022-08-04T13:54:39;0.20;0.20
59572;DHT22;59406;45.602;11.904;2022-08-04T13:57:13;0.20;0.20
59572;DHT22;59406;45.602;11.904;2022-08-04T13:59:44;0.20;0.20
59572;DHT22;59406;45.602;11.904;2022-08-04T14:05:22;0.20;0.20
59572;DHT22;59406;45.602;11.904;2022-08-04T14:07:59;0.20;0.20
59572;DHT22;59406;45.602;11.904;2022-08-04T14:10:31;0.20;0.20
59572;DHT22;59406;45.602;11.904;2022-08-04T14:12:57;0.20;0.20
59572;DHT22;59406;45.602;11.904;2022-08-04T14:15:32;0.20;0.20
59572;DHT22;59406;45.602;11.904;2022-08-04T14:18:17;0.20;0.20
59572;DHT22;59406;45.602;11.904;2022-08-04T14:21:03;0.20;0.20
59572;DHT22;59406;45.602;11.904;2022-08-04T14:23:50;0.20;0.20
59572;DHT22;59406;45.602;11.904;2022-08-04T14:28:42;0.20;0.20
59572;DHT22;59406;45.602;11.904;2022-08-04T14:31:19;0.20;0.20
59572;DHT22;59406;45.602;11.904;2022-08-04T14:33:48;0.20;0.20
59572;DHT22;59406;45.602;11.904;2022-08-04T14:36:15;0.20;0.20
59572;DHT22;59406;45.602;11.904;2022-08-04T14:41:16;0.20;0.20
59572;DHT22;59406;45.602;11.904;2022-08-04T14:44:05;0.20;0.20
59572;DHT22;59406;45.602;11.904;2022-08-04T14:46:31;0.20;0.20
59572;DHT22;59406;45.602;11.904;2022-08-04T14:49:02;0.20;0.20
59572;DHT22;59406;45.602;11.904;2022-08-04T14:51:37;0.20;0.20
59572;DHT22;59406;45.602;11.904;2022-08-04T14:54:03;0.20;0.20
59572;DHT22;59406;45.602;11.904;2022-08-04T14:56:30;0.20;0.20
59572;DHT22;59406;45.602;11.904;2022-08-04T14:59:09;0.20;0.20
59572;DHT22;59406;45.602;11.904;2022-08-04T15:01:37;0.20;0.20
59572;DHT22;59406;45.602;11.904;2022-08-04T15:04:05;0.20;0.20
59572;DHT22;59406;45.602;11.904;2022-08-04T15:06:33;0.20;0.20
59572;DHT22;59406;45.602;11.904;2022-08-04T15:09:05;0.20;0.20
59572;DHT22;59406;45.602;11.904;2022-08-04T15:11:33;0.20;0.20
59572;DHT22;59406;45.602;11.904;2022-08-04T15:13:59;0.20;0.20
59572;DHT22;59406;45.602;11.904;2022-08-04T15:16:27;0.20;0.20
59572;DHT22;59406;45.602;11.904;2022-08-04T15:18:54;0.20;0.20
59572;DHT22;59406;45.602;11.904;2022-08-04T15:21:21;0.20;0.20
59572;DHT22;59406;45.602;11.904;2022-08-04T15:23:48;0.20;0.20
59572;DHT22;59406;45.602;11.904;2022-08-04T15:26:22;0.20;0.20
59572;DHT22;59406;45.602;11.904;2022-08-04T15:28:53;0.20;0.20
59572;DHT22;59406;45.602;11.904;2022-08-04T15:31:22;0.20;0.20
59572;DHT22;59406;45.602;11.904;2022-08-04T15:33:49;0.20;0.20
59572;DHT22;59406;45.602;11.904;2022-08-04T15:36:25;0.20;0.20
59572;DHT22;59406;45.602;11.904;2022-08-04T15:47:20;0.20;0.20
59572;DHT22;59406;45.602;11.904;2022-08-04T15:50:10;0.20;0.20
59572;DHT22;59406;45.602;11.904;2022-08-04T16:00:24;0.20;0.20
59572;DHT22;59406;45.602;11.904;2022-08-04T16:02:50;0.20;0.20
59572;DHT22;59406;45.602;11.904;2022-08-04T16:08:08;0.20;0.20
59572;DHT22;59406;45.602;11.904;2022-08-04T16:10:37;0.20;0.20
59572;DHT22;59406;45.602;11.904;2022-08-04T16:13:09;0.20;0.20
59572;DHT22;59406;45.602;11.904;2022-08-04T16:15:44;0.20;0.20
59572;DHT22;59406;45.602;11.904;2022-08-04T16:20:54;0.20;0.20
59572;DHT22;59406;45.602;11.904;2022-08-04T16:23:39;0.20;0.20
59572;DHT22;59406;45.602;11.904;2022-08-04T16:26:10;0.20;0.20
59572;DHT22;59406;45.602;11.904;2022-08-04T16:28:37;0.20;0.20
59572;DHT22;59406;45.602;11.904;2022-08-04T16:31:09;0.20;0.20
59572;DHT22;59406;45.602;11.904;2022-08-04T16:33:36;0.20;0.20
59572;DHT22;59406;45.602;11.904;2022-08-04T16:36:06;0.20;0.20
59572;DHT22;59406;45.602;11.904;2022-08-04T16:38:59;0.20;0.20
59572;DHT22;59406;45.602;11.904;2022-08-04T16:41:40;0.20;0.20
59572;DHT22;59406;45.602;11.904;2022-08-04T16:44:36;0.20;0.20
59572;DHT22;59406;45.602;11.904;2022-08-04T16:47:07;0.20;0.20
59572;DHT22;59406;45.602;11.904;2022-08-04T16:49:33;0.20;0.20
59572;DHT22;59406;45.602;11.904;2022-08-04T16:52:02;0.20;0.20
59572;DHT22;59406;45.602;11.904;2022-08-04T16:54:32;0.20;0.20
59572;DHT22;59406;45.602;11.904;2022-08-04T16:56:59;0.20;0.20
59572;DHT22;59406;45.602;11.904;2022-08-04T16:59:26;0.20;0.20
59572;DHT22;59406;45.602;11.904;2022-08-04T17:01:53;0.20;0.20
59572;DHT22;59406;45.602;11.904;2022-08-04T17:04:33;0.20;0.20
59572;DHT22;59406;45.602;11.904;2022-08-04T17:07:04;0.20;0.20
59572;DHT22;59406;45.602;11.904;2022-08-04T17:09:31;0.20;0.20
59572;DHT22;59406;45.602;11.904;2022-08-04T17:11:58;0.20;0.20
59572;DHT22;59406;45.602;11.904;2022-08-04T17:14:28;0.20;0.20
59572;DHT22;59406;45.602;11.904;2022-08-04T17:16:57;0.20;0.20
59572;DHT22;59406;45.602;11.904;2022-08-04T17:19:24;0.20;0.20
59572;DHT22;59406;45.602;11.904;2022-08-04T17:21:51;0.20;0.20
59572;DHT22;59406;45.602;11.904;2022-08-04T17:24:17;0.20;0.20
59572;DHT22;59406;45.602;11.904;2022-08-04T17:26:45;0.20;0.20
59572;DHT22;59406;45.602;11.904;2022-08-04T17:29:12;0.20;0.20
59572;DHT22;59406;45.602;11.904;2022-08-04T17:31:38;0.20;0.20
59572;DHT22;59406;45.602;11.904;2022-08-04T17:34:14;0.20;0.20
59572;DHT22;59406;45.602;11.904;2022-08-04T17:36:41;0.20;0.20
59572;DHT22;59406;45.602;11.904;2022-08-04T17:39:13;0.20;0.20
59572;DHT22;59406;45.602;11.904;2022-08-04T17:41:40;0.20;0.20
59572;DHT22;59406;45.602;11.904;2022-08-04T17:44:06;0.20;0.20
59572;DHT22;59406;45.602;11.904;2022-08-04T17:49:04;0.20;0.20
59572;DHT22;59406;45.602;11.904;2022-08-04T17:51:45;0.20;0.20
59572;DHT22;59406;45.602;11.904;2022-08-04T17:54:16;0.20;0.20
59572;DHT22;59406;45.602;11.904;2022-08-04T17:56:49;0.20;0.20
59572;DHT22;59406;45.602;11.904;2022-08-04T17:59:17;0.20;0.20
59572;DHT22;59406;45.602;11.904;2022-08-04T18:04:29;0.20;0.20
59572;DHT22;59406;45.602;11.904;2022-08-04T18:07:02;0.20;0.20
59572;DHT22;59406;45.602;11.904;2022-08-04T18:12:12;0.20;0.20
59572;DHT22;59406;45.602;11.904;2022-08-04T18:14:56;0.20;0.20
59572;DHT22;59406;45.602;11.904;2022-08-04T18:17:43;0.20;0.20
59572;DHT22;59406;45.602;11.904;2022-08-04T18:20:14;0.20;0.20
59572;DHT22;59406;45.602;11.904;2022-08-04T18:22:44;0.20;0.20
59572;DHT22;59406;45.602;11.904;2022-08-04T18:25:12;0.20;0.20
59572;DHT22;59406;45.602;11.904;2022-08-04T18:27:48;0.20;0.20
59572;DHT22;59406;45.602;11.904;2022-08-04T18:30:16;0.20;0.20
59572;DHT22;59406;45.602;11.904;2022-08-04T18:32:43;0.20;0.20
59572;DHT22;59406;45.602;11.904;2022-08-04T18:35:09;0.20;0.20
59572;DHT22;59406;45.602;11.904;2022-08-04T18:37:36;0.20;0.20
59572;DHT22;59406;45.602;11.904;2022-08-04T18:40:04;0.20;0.20
59572;DHT22;59406;45.602;11.904;2022-08-04T18:42:30;0.20;0.20
59572;DHT22;59406;45.602;11.904;2022-08-04T18:44:56;0.20;0.20
59572;DHT22;59406;45.602;11.904;2022-08-04T18:47:22;0.20;0.20
59572;DHT22;59406;45.602;11.904;2022-08-04T18:49:56;0.20;0.20
59572;DHT22;59406;45.602;11.904;2022-08-04T18:52:22;0.20;0.20
59572;DHT22;59406;45.602;11.904;2022-08-04T18:54:48;0.20;0.20
59572;DHT22;59406;45.602;11.904;2022-08-04T18:57:19;0.20;0.20
59572;DHT22;59406;45.602;11.904;2022-08-04T18:59:45;0.20;0.20
59572;DHT22;59406;45.602;11.904;2022-08-04T19:02:11;0.20;0.20
59572;DHT22;59406;45.602;11.904;2022-08-04T19:04:38;0.20;0.20
59572;DHT22;59406;45.602;11.904;2022-08-04T19:07:05;0.20;0.20
59572;DHT22;59406;45.602;11.904;2022-08-04T19:09:31;0.20;0.20
59572;DHT22;59406;45.602;11.904;2022-08-04T19:11:57;0.20;0.20
59572;DHT22;59406;45.602;11.904;2022-08-04T19:14:23;0.20;0.20
59572;DHT22;59406;45.602;11.904;2022-08-04T19:16:49;0.20;0.20
59572;DHT22;59406;45.602;11.904;2022-08-04T19:19:15;0.20;0.20
59572;DHT22;59406;45.602;11.904;2022-08-04T19:21:43;31.80;37.40
59572;DHT22;59406;45.602;11.904;2022-08-04T19:24:09;31.70;38.60
59572;DHT22;59406;45.602;11.904;2022-08-04T19:26:37;31.50;39.20
59572;DHT22;59406;45.602;11.904;2022-08-04T19:29:04;31.30;39.30
59572;DHT22;59406;45.602;11.904;2022-08-04T19:31:30;31.10;39.00
59572;DHT22;59406;45.602;11.904;2022-08-04T19:33:56;30.70;41.40
59572;DHT22;59406;45.602;11.904;2022-08-04T19:36:24;30.30;42.30
59572;DHT22;59406;45.602;11.904;2022-08-04T19:38:53;30.10;42.60
59572;DHT22;59406;45.602;11.904;2022-08-04T19:41:19;30.00;42.10
59572;DHT22;59406;45.602;11.904;2022-08-04T19:43:45;30.00;42.10
59572;DHT22;59406;45.602;11.904;2022-08-04T19:46:13;30.00;41.50
59572;DHT22;59406;45.602;11.904;2022-08-04T19:48:40;30.00;41.40
59572;DHT22;59406;45.602;11.904;2022-08-04T19:51:08;30.00;40.40
59572;DHT22;59406;45.602;11.904;2022-08-04T19:53:34;30.10;40.80
59572;DHT22;59406;45.602;11.904;2022-08-04T19:56:00;30.10;40.80
59572;DHT22;59406;45.602;11.904;2022-08-04T19:58:26;30.00;41.20
59572;DHT22;59406;45.602;11.904;2022-08-04T20:00:52;30.00;41.10
59572;DHT22;59406;45.602;11.904;2022-08-04T20:03:18;29.70;42.80
59572;DHT22;59406;45.602;11.904;2022-08-04T20:05:44;29.60;43.10
59572;DHT22;59406;45.602;11.904;2022-08-04T20:08:10;29.60;43.30
59572;DHT22;59406;45.602;11.904;2022-08-04T20:10:37;29.50;42.90
59572;DHT22;59406;45.602;11.904;2022-08-04T20:13:04;29.50;43.10
59572;DHT22;59406;45.602;11.904;2022-08-04T20:15:31;29.50;42.80
59572;DHT22;59406;45.602;11.904;2022-08-04T20:17:57;29.50;43.00
59572;DHT22;59406;45.602;11.904;2022-08-04T20:20:23;29.40;43.00
59572;DHT22;59406;45.602;11.904;2022-08-04T20:22:49;29.40;43.60
59572;DHT22;59406;45.602;11.904;2022-08-04T20:25:15;29.20;43.70
59572;DHT22;59406;45.602;11.904;2022-08-04T20:27:41;29.20;43.90
59572;DHT22;59406;45.602;11.904;2022-08-04T20:30:08;29.20;43.90
59572;DHT22;59406;45.602;11.904;2022-08-04T20:32:34;29.10;43.70